createdAt,value
2022-10-23T00:00:07.059Z,97938.47
2022-10-23T00:02:33.860Z,97937.38
2022-10-23T00:05:00.486Z,97936.97
2022-10-23T00:07:27.156Z,97928.03
2022-10-23T00:09:53.821Z,97929.84
2022-10-23T00:12:20.449Z,97928.91
2022-10-23T00:14:47.043Z,97930.22
2022-10-23T00:17:13.659Z,97933.69
2022-10-23T00:19:40.238Z,97935.91
2022-10-23T00:22:06.839Z,97940.66
2022-10-23T00:24:33.434Z,97942.50
2022-10-23T00:27:00.088Z,97946.00
2022-10-23T00:29:26.674Z,97934.47
2022-10-23T00:31:53.262Z,97943.97
2022-10-23T00:34:19.930Z,97930.66
2022-10-23T00:36:46.522Z,97932.66
2022-10-23T00:39:13.160Z,97928.13
2022-10-23T00:41:39.763Z,97938.84
2022-10-23T00:44:06.387Z,97929.13
2022-10-23T00:46:32.975Z,97938.28
2022-10-23T00:48:59.658Z,97934.75
2022-10-23T00:51:26.288Z,97919.16
2022-10-23T00:54:01.326Z,97922.75
2022-10-23T00:56:39.503Z,97926.69
2022-10-23T00:59:06.119Z,97920.00
2022-10-23T01:01:32.863Z,97928.34
2022-10-23T01:03:59.586Z,97927.69
2022-10-23T01:06:26.182Z,97939.19
2022-10-23T01:08:52.801Z,97927.19
2022-10-23T01:11:19.432Z,97928.38
2022-10-23T01:13:46.013Z,97915.66
2022-10-23T01:16:12.656Z,97917.63
2022-10-23T01:18:39.268Z,97920.19
2022-10-23T01:21:05.882Z,97921.22
2022-10-23T01:23:32.489Z,97917.81
2022-10-23T01:25:59.162Z,97917.13
2022-10-23T01:28:25.757Z,97928.34
2022-10-23T01:30:52.384Z,97924.22
2022-10-23T01:33:19.102Z,97927.41
2022-10-23T01:35:45.683Z,97931.38
2022-10-23T01:38:12.299Z,97928.22
2022-10-23T01:40:38.896Z,97928.34
2022-10-23T01:43:05.515Z,97931.47
2022-10-23T01:45:32.329Z,97937.25
2022-10-23T01:47:58.943Z,97928.44
2022-10-23T01:50:25.557Z,97932.13
2022-10-23T01:52:52.144Z,97919.81
2022-10-23T01:55:18.762Z,97930.00
2022-10-23T01:57:45.532Z,97923.84
2022-10-23T02:00:12.282Z,97926.34
2022-10-23T02:02:38.880Z,97919.47
2022-10-23T02:05:05.503Z,97917.16
2022-10-23T02:07:32.095Z,97918.28
2022-10-23T02:09:58.687Z,97917.25
2022-10-23T02:12:25.294Z,97923.97
2022-10-23T02:14:51.884Z,97927.28
2022-10-23T02:17:18.497Z,97926.69
2022-10-23T02:19:45.107Z,97926.19
2022-10-23T02:22:11.725Z,97921.44
2022-10-23T02:24:38.344Z,97915.69
2022-10-23T02:27:04.947Z,97914.53
2022-10-23T02:29:31.555Z,97914.91
2022-10-23T02:31:58.145Z,97921.94
2022-10-23T02:34:24.771Z,97911.00
2022-10-23T02:36:51.357Z,97910.31
2022-10-23T02:39:18.003Z,97904.81
2022-10-23T02:41:44.647Z,97908.44
2022-10-23T02:44:11.242Z,97904.50
2022-10-23T02:46:37.876Z,97900.28
2022-10-23T02:49:04.472Z,97901.53
2022-10-23T02:51:31.079Z,97907.50
2022-10-23T02:56:29.161Z,97905.53
2022-10-23T02:58:55.741Z,97904.22
2022-10-23T03:01:22.387Z,97909.59
2022-10-23T03:03:49.096Z,97904.72
2022-10-23T03:06:15.687Z,97911.47
2022-10-23T03:08:42.315Z,97917.44
2022-10-23T03:11:08.907Z,97911.09
2022-10-23T03:13:35.543Z,97909.75
2022-10-23T03:16:02.133Z,97915.69
2022-10-23T03:18:28.748Z,97922.28
2022-10-23T03:20:55.351Z,97917.94
2022-10-23T03:23:21.935Z,97927.69
2022-10-23T03:25:48.563Z,97923.75
2022-10-23T03:28:15.165Z,97923.97
2022-10-23T03:30:41.776Z,97911.38
2022-10-23T03:33:08.378Z,97907.06
2022-10-23T03:35:35.112Z,97915.66
2022-10-23T03:38:01.749Z,97917.31
2022-10-23T03:40:28.368Z,97907.50
2022-10-23T03:42:54.957Z,97913.97
2022-10-23T03:45:21.544Z,97913.78
2022-10-23T03:47:48.151Z,97908.94
2022-10-23T03:50:14.777Z,97906.31
2022-10-23T03:52:41.562Z,97906.13
2022-10-23T03:55:08.333Z,97903.69
2022-10-23T03:57:34.943Z,97900.75
2022-10-23T04:00:01.540Z,97902.50
2022-10-23T04:02:28.251Z,97902.03
2022-10-23T04:04:54.921Z,97904.06
2022-10-23T04:07:21.527Z,97889.31
2022-10-23T04:09:48.214Z,97896.03
2022-10-23T04:12:14.847Z,97900.78
2022-10-23T04:14:41.433Z,97905.03
2022-10-23T04:17:08.141Z,97896.97
2022-10-23T04:19:34.773Z,97899.31
2022-10-23T04:22:01.392Z,97893.31
2022-10-23T04:24:27.978Z,97892.00
2022-10-23T04:26:54.599Z,97892.50
2022-10-23T04:29:21.180Z,97896.16
2022-10-23T04:31:47.773Z,97889.78
2022-10-23T04:34:14.412Z,97890.63
2022-10-23T04:36:41.073Z,97884.88
2022-10-23T04:39:07.691Z,97890.69
2022-10-23T04:41:34.314Z,97876.59
2022-10-23T04:44:00.911Z,97884.34
2022-10-23T04:46:27.549Z,97876.41
2022-10-23T04:48:54.143Z,97871.34
2022-10-23T04:51:20.775Z,97878.50
2022-10-23T04:53:47.359Z,97874.34
2022-10-23T04:56:13.999Z,97876.78
2022-10-23T04:58:40.583Z,97867.47
2022-10-23T05:01:07.280Z,97862.19
2022-10-23T05:03:33.979Z,97851.97
2022-10-23T05:06:00.584Z,97858.31
2022-10-23T05:08:27.195Z,97865.97
2022-10-23T05:10:53.828Z,97852.28
2022-10-23T05:13:20.425Z,97854.13
2022-10-23T05:15:47.047Z,97858.81
2022-10-23T05:18:13.659Z,97856.41
2022-10-23T05:20:40.279Z,97863.06
2022-10-23T05:23:06.864Z,97855.03
2022-10-23T05:25:33.506Z,97857.91
2022-10-23T05:28:00.108Z,97858.47
2022-10-23T05:30:26.748Z,97857.84
2022-10-23T05:32:53.335Z,97871.31
2022-10-23T05:35:19.918Z,97871.00
2022-10-23T05:37:46.529Z,97868.56
2022-10-23T05:40:13.132Z,97863.88
2022-10-23T05:42:41.723Z,97870.38
2022-10-23T05:45:08.531Z,97863.88
2022-10-23T05:47:35.155Z,97876.19
2022-10-23T05:50:01.762Z,97877.72
2022-10-23T05:52:28.372Z,97881.38
2022-10-23T05:54:54.993Z,97873.69
2022-10-23T05:57:21.602Z,97873.69
2022-10-23T05:59:48.226Z,97874.22
2022-10-23T06:02:14.876Z,97881.63
2022-10-23T06:04:41.541Z,97882.16
2022-10-23T06:07:08.163Z,97880.88
2022-10-23T06:09:34.795Z,97892.56
2022-10-23T06:12:01.386Z,97883.84
2022-10-23T06:14:28.005Z,97887.88
2022-10-23T06:16:54.612Z,97890.66
2022-10-23T06:19:21.251Z,97883.59
2022-10-23T06:21:47.864Z,97888.94
2022-10-23T06:24:14.475Z,97886.72
2022-10-23T06:26:41.098Z,97891.78
2022-10-23T06:29:07.722Z,97890.78
2022-10-23T06:31:34.386Z,97893.41
2022-10-23T06:34:00.978Z,97894.00
2022-10-23T06:36:27.591Z,97897.44
2022-10-23T06:38:54.280Z,97895.31
2022-10-23T06:41:20.944Z,97901.22
2022-10-23T06:46:31.838Z,97918.59
2022-10-23T06:48:58.418Z,97927.16
2022-10-23T06:51:25.028Z,97918.31
2022-10-23T06:53:51.638Z,97912.69
2022-10-23T06:56:18.244Z,97907.09
2022-10-23T06:58:44.840Z,97895.47
2022-10-23T07:01:11.603Z,97898.41
2022-10-23T07:03:38.362Z,97892.66
2022-10-23T07:06:04.968Z,97898.78
2022-10-23T07:08:31.580Z,97904.16
2022-10-23T07:10:58.195Z,97905.88
2022-10-23T07:13:24.774Z,97912.97
2022-10-23T07:15:51.411Z,97907.00
2022-10-23T07:18:17.996Z,97910.28
2022-10-23T07:20:44.608Z,97907.50
2022-10-23T07:23:11.200Z,97904.97
2022-10-23T07:25:37.838Z,97910.16
2022-10-23T07:28:04.456Z,97903.47
2022-10-23T07:30:31.069Z,97899.41
2022-10-23T07:32:57.680Z,97907.97
2022-10-23T07:35:24.260Z,97909.41
2022-10-23T07:37:50.884Z,97907.97
2022-10-23T07:40:17.523Z,97920.81
2022-10-23T07:42:44.146Z,97905.53
2022-10-23T07:45:10.772Z,97907.19
2022-10-23T07:47:37.381Z,97893.88
2022-10-23T07:50:03.997Z,97900.72
2022-10-23T07:52:33.481Z,97897.56
2022-10-23T07:55:02.457Z,97899.50
2022-10-23T07:57:29.076Z,97901.69
2022-10-23T07:59:55.682Z,97892.56
2022-10-23T08:02:22.420Z,97890.44
2022-10-23T08:04:49.064Z,97884.75
2022-10-23T08:07:15.707Z,97886.94
2022-10-23T08:09:42.300Z,97884.28
2022-10-23T08:12:08.912Z,97890.59
2022-10-23T08:14:35.523Z,97890.44
2022-10-23T08:19:33.649Z,97881.22
2022-10-23T08:22:00.242Z,97877.97
2022-10-23T08:24:26.896Z,97885.69
2022-10-23T08:26:53.489Z,97880.03
2022-10-23T08:29:20.171Z,97876.19
2022-10-23T08:31:46.770Z,97875.84
2022-10-23T08:34:13.384Z,97871.81
2022-10-23T08:36:39.994Z,97863.97
2022-10-23T08:39:06.588Z,97864.13
2022-10-23T08:41:33.198Z,97865.66
2022-10-23T08:43:59.816Z,97861.50
2022-10-23T08:46:26.450Z,97866.28
2022-10-23T08:48:53.065Z,97876.75
2022-10-23T08:51:19.682Z,97881.91
2022-10-23T08:53:46.275Z,97877.03
2022-10-23T08:56:12.916Z,97884.31
2022-10-23T08:58:39.525Z,97895.81
2022-10-23T09:01:06.221Z,97892.34
2022-10-23T09:03:32.882Z,97886.66
2022-10-23T09:05:59.487Z,97889.03
2022-10-23T09:08:26.102Z,97895.75
2022-10-23T09:10:52.722Z,97890.25
2022-10-23T09:13:19.316Z,97895.13
2022-10-23T09:15:45.930Z,97890.88
2022-10-23T09:18:12.549Z,97883.63
2022-10-23T09:20:39.143Z,97887.50
2022-10-23T09:23:05.764Z,97881.34
2022-10-23T09:25:32.355Z,97895.28
2022-10-23T09:28:01.385Z,97892.41
2022-10-23T09:30:31.048Z,97889.41
2022-10-23T09:32:57.667Z,97883.06
2022-10-23T09:35:24.285Z,97884.19
2022-10-23T09:37:50.880Z,97884.47
2022-10-23T09:40:17.503Z,97886.75
2022-10-23T09:42:44.120Z,97878.06
2022-10-23T09:45:10.757Z,97879.31
2022-10-23T09:47:37.385Z,97872.38
2022-10-23T09:50:03.986Z,97871.94
2022-10-23T09:52:30.600Z,97874.72
2022-10-23T09:54:57.195Z,97867.06
2022-10-23T09:57:23.816Z,97865.22
2022-10-23T09:59:50.411Z,97866.91
2022-10-23T10:02:17.198Z,97863.34
2022-10-23T10:04:43.904Z,97858.25
2022-10-23T10:07:10.500Z,97851.03
2022-10-23T10:09:37.262Z,97850.44
2022-10-23T10:12:03.883Z,97854.41
2022-10-23T10:14:30.500Z,97855.09
2022-10-23T10:16:57.121Z,97850.06
2022-10-23T10:19:23.764Z,97850.84
2022-10-23T10:21:51.279Z,97847.78
2022-10-23T10:24:17.906Z,97856.06
2022-10-23T10:26:44.532Z,97846.97
2022-10-23T10:29:11.156Z,97843.94
2022-10-23T10:31:37.791Z,97835.22
2022-10-23T10:34:04.396Z,97834.16
2022-10-23T10:36:31.013Z,97829.22
2022-10-23T10:38:57.632Z,97826.94
2022-10-23T10:41:24.213Z,97821.97
2022-10-23T10:43:50.848Z,97825.19
2022-10-23T10:46:17.472Z,97814.78
2022-10-23T10:48:44.138Z,97812.56
2022-10-23T10:51:10.736Z,97806.41
2022-10-23T10:53:37.362Z,97804.03
2022-10-23T10:56:04.064Z,97797.19
2022-10-23T10:58:30.738Z,97799.19
2022-10-23T11:00:57.373Z,97796.66
2022-10-23T11:03:24.099Z,97796.75
2022-10-23T11:05:50.758Z,97782.41
2022-10-23T11:08:17.438Z,97787.50
2022-10-23T11:10:44.031Z,97785.81
2022-10-23T11:13:10.701Z,97787.47
2022-10-23T11:15:37.293Z,97776.59
2022-10-23T11:18:03.904Z,97779.69
2022-10-23T11:20:30.534Z,97771.19
2022-10-23T11:22:57.153Z,97758.31
2022-10-23T11:25:23.788Z,97753.72
2022-10-23T11:27:50.402Z,97748.16
2022-10-23T11:30:17.020Z,97751.38
2022-10-23T11:32:43.659Z,97752.22
2022-10-23T11:35:10.297Z,97739.47
2022-10-23T11:37:36.916Z,97736.28
2022-10-23T11:40:03.516Z,97722.41
2022-10-23T11:42:30.143Z,97722.03
2022-10-23T11:44:56.802Z,97724.09
2022-10-23T11:47:23.394Z,97733.53
2022-10-23T11:49:50.014Z,97735.88
2022-10-23T11:52:16.634Z,97734.16
2022-10-23T11:54:43.234Z,97723.16
2022-10-23T11:57:10.698Z,97727.59
2022-10-23T11:59:37.491Z,97725.19
2022-10-23T12:02:04.291Z,97723.00
2022-10-23T12:04:30.939Z,97732.03
2022-10-23T12:06:57.587Z,97735.22
2022-10-23T12:09:24.250Z,97730.28
2022-10-23T12:11:50.847Z,97717.53
2022-10-23T12:14:17.477Z,97701.84
2022-10-23T12:16:44.092Z,97693.13
2022-10-23T12:19:10.685Z,97688.19
2022-10-23T12:21:37.298Z,97683.66
2022-10-23T12:24:03.887Z,97671.81
2022-10-23T12:26:30.514Z,97670.56
2022-10-23T12:28:57.112Z,97677.00
2022-10-23T12:31:23.731Z,97673.53
2022-10-23T12:33:50.342Z,97661.47
2022-10-23T12:36:16.981Z,97657.19
2022-10-23T12:38:43.571Z,97648.31
2022-10-23T12:41:10.227Z,97645.19
2022-10-23T12:43:36.845Z,97644.69
2022-10-23T12:48:47.679Z,97648.22
2022-10-23T12:51:14.373Z,97643.34
2022-10-23T12:53:40.985Z,97636.94
2022-10-23T12:56:07.600Z,97634.78
2022-10-23T12:58:34.236Z,97628.16
2022-10-23T13:01:00.908Z,97631.97
2022-10-23T13:03:27.705Z,97631.72
2022-10-23T13:05:54.328Z,97627.28
2022-10-23T13:08:20.931Z,97623.97
2022-10-23T13:10:47.529Z,97626.00
2022-10-23T13:13:14.162Z,97629.75
2022-10-23T13:15:40.782Z,97632.91
2022-10-23T13:18:07.408Z,97630.00
2022-10-23T13:20:33.996Z,97611.94
2022-10-23T13:23:01.105Z,97612.44
2022-10-23T13:25:27.911Z,97608.81
2022-10-23T13:27:54.508Z,97612.94
2022-10-23T13:30:21.127Z,97615.47
2022-10-23T13:32:47.791Z,97609.66
2022-10-23T13:35:21.312Z,97600.25
2022-10-23T13:37:48.722Z,97595.31
2022-10-23T13:40:15.340Z,97603.94
2022-10-23T13:42:42.197Z,97602.06
2022-10-23T13:45:09.130Z,97592.13
2022-10-23T13:47:35.775Z,97581.22
2022-10-23T13:50:02.372Z,97589.94
2022-10-23T13:52:29.012Z,97597.44
2022-10-23T13:54:55.600Z,97592.38
2022-10-23T13:57:22.221Z,97587.88
2022-10-23T13:59:48.847Z,97589.50
2022-10-23T14:02:15.564Z,97580.88
2022-10-23T14:04:42.284Z,97587.31
2022-10-23T14:07:08.902Z,97588.66
2022-10-23T14:09:35.492Z,97578.72
2022-10-23T14:12:02.088Z,97588.16
2022-10-23T14:14:28.727Z,97586.78
2022-10-23T14:16:55.347Z,97586.25
2022-10-23T14:19:21.940Z,97580.25
2022-10-23T14:21:48.596Z,97582.69
2022-10-23T14:24:15.216Z,97585.41
2022-10-23T14:26:41.839Z,97589.94
2022-10-23T14:29:12.685Z,97576.72
2022-10-23T14:31:45.237Z,97583.53
2022-10-23T14:34:11.846Z,97578.19
2022-10-23T14:36:49.623Z,97577.34
2022-10-23T14:39:17.248Z,97580.75
2022-10-23T14:41:43.849Z,97584.56
2022-10-23T14:44:10.436Z,97579.81
2022-10-23T14:46:37.089Z,97577.19
2022-10-23T14:49:03.686Z,97575.84
2022-10-23T14:51:30.285Z,97576.28
2022-10-23T14:53:58.864Z,97571.47
2022-10-23T14:56:25.712Z,97565.09
2022-10-23T14:58:52.351Z,97572.09
2022-10-23T15:01:19.080Z,97563.69
2022-10-23T15:03:45.827Z,97573.31
2022-10-23T15:06:16.065Z,97560.44
2022-10-23T15:08:45.122Z,97559.66
2022-10-23T15:11:12.740Z,97560.97
2022-10-23T15:13:39.569Z,97559.78
2022-10-23T15:16:06.177Z,97553.13
2022-10-23T15:18:32.848Z,97563.88
2022-10-23T15:20:59.547Z,97560.88
2022-10-23T15:23:26.169Z,97555.69
2022-10-23T15:25:52.800Z,97556.66
2022-10-23T15:28:19.447Z,97556.66
2022-10-23T15:30:46.052Z,97564.63
2022-10-23T15:33:16.456Z,97554.41
2022-10-23T15:35:45.621Z,97562.78
2022-10-23T15:38:12.242Z,97561.00
2022-10-23T15:40:38.835Z,97560.56
2022-10-23T15:43:05.455Z,97560.03
2022-10-23T15:45:32.039Z,97564.19
2022-10-23T15:47:58.656Z,97553.41
2022-10-23T15:50:25.311Z,97559.75
2022-10-23T15:52:51.913Z,97558.16
2022-10-23T15:55:18.547Z,97564.66
2022-10-23T15:57:45.144Z,97565.72
2022-10-23T16:00:11.778Z,97561.28
2022-10-23T16:02:38.410Z,97569.84
2022-10-23T16:05:05.062Z,97563.72
2022-10-23T16:07:31.707Z,97566.75
2022-10-23T16:09:58.297Z,97565.88
2022-10-23T16:12:24.941Z,97577.97
2022-10-23T16:14:51.522Z,97569.88
2022-10-23T16:17:18.147Z,97579.63
2022-10-23T16:19:44.739Z,97571.41
2022-10-23T16:22:11.336Z,97574.28
2022-10-23T16:24:37.953Z,97570.34
2022-10-23T16:27:04.569Z,97573.72
2022-10-23T16:29:31.170Z,97576.50
2022-10-23T16:31:57.839Z,97569.56
2022-10-23T16:34:24.530Z,97569.34
2022-10-23T16:36:51.165Z,97574.00
2022-10-23T16:39:17.790Z,97577.13
2022-10-23T16:41:44.415Z,97575.28
2022-10-23T16:44:11.050Z,97585.59
2022-10-23T16:46:37.682Z,97587.91
2022-10-23T16:49:04.318Z,97588.38
2022-10-23T16:51:30.963Z,97584.34
2022-10-23T16:53:57.591Z,97582.63
2022-10-23T16:56:24.261Z,97583.78
2022-10-23T16:58:50.876Z,97583.53
2022-10-23T17:01:17.583Z,97590.13
2022-10-23T17:03:44.260Z,97598.09
2022-10-23T17:06:11.352Z,97602.69
2022-10-23T17:08:38.103Z,97612.66
2022-10-23T17:11:04.732Z,97607.19
2022-10-23T17:13:31.343Z,97607.03
2022-10-23T17:15:57.952Z,97612.16
2022-10-23T17:18:24.570Z,97613.66
2022-10-23T17:20:51.183Z,97611.44
2022-10-23T17:23:17.857Z,97606.94
2022-10-23T17:25:44.479Z,97613.50
2022-10-23T17:28:11.207Z,97613.69
2022-10-23T17:30:37.854Z,97619.59
2022-10-23T17:33:04.489Z,97613.81
2022-10-23T17:35:31.100Z,97610.03
2022-10-23T17:37:57.724Z,97604.63
2022-10-23T17:40:25.269Z,97596.91
2022-10-23T17:42:51.981Z,97600.22
2022-10-23T17:45:18.618Z,97598.56
2022-10-23T17:47:45.243Z,97612.66
2022-10-23T17:50:11.874Z,97607.25
2022-10-23T17:52:38.478Z,97606.94
2022-10-23T17:55:05.105Z,97606.19
2022-10-23T17:57:31.715Z,97609.00
2022-10-23T17:59:58.349Z,97602.59
2022-10-23T18:02:25.048Z,97614.88
2022-10-23T18:04:51.793Z,97603.13
2022-10-23T18:07:18.413Z,97613.94
2022-10-23T18:09:45.011Z,97603.44
2022-10-23T18:12:11.650Z,97607.72
2022-10-23T18:14:38.247Z,97608.88
2022-10-23T18:17:04.852Z,97614.94
2022-10-23T18:19:31.493Z,97618.31
2022-10-23T18:21:58.093Z,97619.38
2022-10-23T18:24:24.711Z,97610.75
2022-10-23T18:26:51.321Z,97606.25
2022-10-23T18:29:17.942Z,97617.44
2022-10-23T18:31:44.542Z,97603.28
2022-10-23T18:34:11.150Z,97605.25
2022-10-23T18:36:37.773Z,97596.75
2022-10-23T18:39:04.414Z,97593.59
2022-10-23T18:41:31.030Z,97592.41
2022-10-23T18:43:57.673Z,97594.28
2022-10-23T18:46:24.279Z,97584.56
2022-10-23T18:48:50.980Z,97581.34
2022-10-23T18:51:17.601Z,97589.63
2022-10-23T18:53:44.216Z,97582.84
2022-10-23T18:56:10.856Z,97577.09
2022-10-23T18:58:37.473Z,97574.13
2022-10-23T19:01:04.201Z,97573.53
2022-10-23T19:03:30.947Z,97564.81
2022-10-23T19:05:57.561Z,97576.97
2022-10-23T19:08:24.183Z,97562.34
2022-10-23T19:10:50.796Z,97569.94
2022-10-23T19:13:17.430Z,97568.41
2022-10-23T19:15:44.028Z,97571.00
2022-10-23T19:18:10.651Z,97576.97
2022-10-23T19:20:37.245Z,97568.84
2022-10-23T19:23:03.876Z,97570.03
2022-10-23T19:25:30.541Z,97563.63
2022-10-23T19:27:57.217Z,97557.25
2022-10-23T19:30:23.844Z,97558.06
2022-10-23T19:32:50.700Z,97555.91
2022-10-23T19:35:17.331Z,97558.66
2022-10-23T19:37:44.221Z,97555.16
2022-10-23T19:40:10.974Z,97563.28
2022-10-23T19:42:37.606Z,97557.00
2022-10-23T19:45:04.209Z,97559.41
2022-10-23T19:47:30.809Z,97568.16
2022-10-23T19:49:57.437Z,97561.34
2022-10-23T19:52:24.082Z,97563.00
2022-10-23T19:54:50.706Z,97563.38
2022-10-23T19:57:19.297Z,97561.66
2022-10-23T19:59:48.499Z,97556.75
2022-10-23T20:02:15.170Z,97560.41
2022-10-23T20:04:41.915Z,97552.16
2022-10-23T20:07:08.526Z,97551.28
2022-10-23T20:09:35.153Z,97556.47
2022-10-23T20:12:01.773Z,97547.09
2022-10-23T20:14:28.394Z,97547.94
2022-10-23T20:16:56.057Z,97550.31
2022-10-23T20:19:22.881Z,97539.03
2022-10-23T20:21:49.480Z,97544.00
2022-10-23T20:24:16.080Z,97543.22
2022-10-23T20:26:42.724Z,97555.59
2022-10-23T20:29:09.363Z,97547.28
2022-10-23T20:31:35.990Z,97539.84
2022-10-23T20:34:02.589Z,97547.72
2022-10-23T20:36:29.225Z,97559.91
2022-10-23T20:38:55.813Z,97556.72
2022-10-23T20:41:22.423Z,97551.78
2022-10-23T20:43:49.010Z,97564.56
2022-10-23T20:46:15.628Z,97563.44
2022-10-23T20:48:42.225Z,97563.53
2022-10-23T20:51:08.835Z,97565.75
2022-10-23T20:53:35.464Z,97567.69
2022-10-23T20:56:02.061Z,97558.97
2022-10-23T20:58:28.658Z,97564.59
2022-10-23T21:03:39.723Z,97552.22
2022-10-23T21:06:06.349Z,97553.91
2022-10-23T21:08:32.960Z,97562.66
2022-10-23T21:10:59.581Z,97559.41
2022-10-23T21:13:26.231Z,97556.66
2022-10-23T21:15:52.876Z,97556.28
2022-10-23T21:18:41.110Z,97558.31
2022-10-23T21:21:06.086Z,97555.88
2022-10-23T21:23:32.694Z,97561.13
2022-10-23T21:26:02.225Z,97558.59
2022-10-23T21:28:31.377Z,97550.56
2022-10-23T21:30:57.981Z,97545.31
2022-10-23T21:33:24.569Z,97542.41
2022-10-23T21:35:58.463Z,97538.97
2022-10-23T21:38:31.307Z,97537.19
2022-10-23T21:40:57.954Z,97545.88
2022-10-23T21:43:24.572Z,97542.91
2022-10-23T21:45:54.300Z,97535.09
2022-10-23T21:48:22.063Z,97528.63
2022-10-23T21:53:16.185Z,97546.16
2022-10-23T21:55:42.793Z,97540.31
2022-10-23T21:58:09.412Z,97553.56
2022-10-23T22:00:36.001Z,97547.69
2022-10-23T22:03:02.637Z,97548.34
2022-10-23T22:05:29.275Z,97549.63
2022-10-23T22:07:55.882Z,97543.13
2022-10-23T22:10:22.518Z,97543.78
2022-10-23T22:12:49.140Z,97536.31
2022-10-23T22:15:15.755Z,97530.91
2022-10-23T22:17:42.703Z,97536.81
2022-10-23T22:20:09.542Z,97532.50
2022-10-23T22:22:36.172Z,97531.06
2022-10-23T22:25:02.819Z,97524.56
2022-10-23T22:27:29.411Z,97530.22
2022-10-23T22:29:56.039Z,97537.66
2022-10-23T22:32:22.661Z,97538.84
2022-10-23T22:34:52.981Z,97547.22
2022-10-23T22:37:20.010Z,97528.06
2022-10-23T22:39:46.626Z,97513.25
2022-10-23T22:42:13.228Z,97537.09
2022-10-23T22:44:39.879Z,97533.78
2022-10-23T22:47:06.477Z,97533.75
2022-10-23T22:49:33.091Z,97539.28
2022-10-23T22:51:59.732Z,97543.75
2022-10-23T22:54:26.352Z,97536.88
2022-10-23T22:56:52.963Z,97552.75
2022-10-23T22:59:19.543Z,97539.72
2022-10-23T23:01:46.179Z,97535.75
2022-10-23T23:04:25.912Z,97539.44
2022-10-23T23:06:52.739Z,97532.88
2022-10-23T23:09:19.368Z,97533.41
2022-10-23T23:11:51.915Z,97536.69
2022-10-23T23:14:22.128Z,97536.94
2022-10-23T23:16:50.698Z,97543.69
2022-10-23T23:19:17.317Z,97541.56
2022-10-23T23:21:43.942Z,97536.72
2022-10-23T23:24:10.529Z,97532.16
2022-10-23T23:26:37.144Z,97521.19
2022-10-23T23:29:03.766Z,97519.22
2022-10-23T23:31:30.385Z,97521.78
2022-10-23T23:33:57.002Z,97524.06
2022-10-23T23:36:23.615Z,97522.59
2022-10-23T23:38:50.334Z,97502.88
2022-10-23T23:41:17.016Z,97520.06
2022-10-23T23:43:43.633Z,97509.59
2022-10-23T23:46:10.241Z,97516.34
2022-10-23T23:48:36.870Z,97522.06
2022-10-23T23:51:03.455Z,97520.19
2022-10-23T23:53:30.069Z,97520.09
2022-10-23T23:55:56.700Z,97509.38
2022-10-23T23:58:23.287Z,97526.59
